Time;durP1;ratioP1;P1;durP2;ratioP2;P2;SDS_P1;SDS_P2;PMS_P1;PMS_P2;Temp;Humidity;BMP_temperature;BMP_pressure;BME280_temperature;BME280_humidity;BME280_pressure;Samples;Min_cycle;Max_cycle;Signal;HPM_P1;HPM_P2
2022/04/23 00:02:25;;;;;;;13.93;9.85;;;;;;;7.09;79.59;100428.53;5054504;28;20260;-79
2022/04/23 00:04:52;;;;;;;19.65;11.10;;;;;;;7.07;79.48;100431.22;5045329;28;20054;-79
2022/04/23 00:07:19;;;;;;;16.65;11.60;;;;;;;7.01;79.75;100426.25;5049418;28;20072;-79
2022/04/23 00:09:46;;;;;;;15.05;11.25;;;;;;;6.96;80.23;100436.09;5056927;28;20210;-79
2022/04/23 00:12:14;;;;;;;13.85;10.63;;;;;;;6.92;80.38;100426.69;5055766;28;20068;-80
2022/04/23 00:14:42;;;;;;;12.60;10.30;;;;;;;6.92;80.62;100431.09;5041921;28;20051;-80
2022/04/23 00:17:09;;;;;;;13.77;10.60;;;;;;;6.89;80.71;100428.59;5031468;28;20140;-79
2022/04/23 00:19:36;;;;;;;13.20;11.32;;;;;;;6.86;80.19;100429.63;5040268;28;20053;-79
2022/04/23 00:22:04;;;;;;;13.45;11.25;;;;;;;6.85;80.83;100427.94;5063283;28;20121;-79
2022/04/23 00:24:31;;;;;;;12.13;9.98;;;;;;;6.81;80.68;100419.38;5046741;28;20075;-79
2022/04/23 00:26:58;;;;;;;14.25;11.43;;;;;;;6.79;80.92;100420.34;5080538;28;20053;-78
2022/04/23 00:29:26;;;;;;;17.08;11.63;;;;;;;6.80;80.76;100422.06;5077357;28;20437;-79
2022/04/23 00:31:53;;;;;;;13.88;11.85;;;;;;;6.78;80.49;100426.50;5060489;28;20063;-80
2022/04/23 00:34:20;;;;;;;15.07;12.30;;;;;;;6.77;80.46;100423.03;5043760;28;20041;-79
2022/04/23 00:36:47;;;;;;;13.30;11.77;;;;;;;6.76;80.35;100425.75;5051958;28;20112;-79
2022/04/23 00:39:14;;;;;;;14.90;11.27;;;;;;;6.74;80.15;100424.94;5043090;28;20049;-79
2022/04/23 00:41:48;;;;;;;15.43;12.25;;;;;;;6.73;80.10;100428.50;5042975;28;20060;-80
2022/04/23 00:44:16;;;;;;;15.07;11.82;;;;;;;6.71;80.22;100422.47;5059609;28;20068;-80
2022/04/23 00:46:43;;;;;;;13.77;11.60;;;;;;;6.67;80.16;100421.78;5064008;28;20223;-79
2022/04/23 00:49:12;;;;;;;16.70;11.65;;;;;;;6.66;80.22;100424.44;5045410;28;20052;-78
2022/04/23 00:51:40;;;;;;;14.40;11.55;;;;;;;6.69;80.10;100422.53;5039552;28;20049;-79
2022/04/23 00:54:08;;;;;;;12.65;11.27;;;;;;;6.64;80.09;100427.13;5067514;28;20069;-80
2022/04/23 00:56:39;;;;;;;15.70;13.10;;;;;;;6.62;80.19;100423.75;5063604;28;20052;-80
2022/04/23 00:59:08;;;;;;;15.00;11.65;;;;;;;6.64;80.12;100421.91;5047489;28;20070;-79
2022/04/23 01:01:36;;;;;;;15.20;11.82;;;;;;;6.60;80.51;100417.72;5036288;28;20049;-80
2022/04/23 01:04:06;;;;;;;15.75;12.07;;;;;;;6.59;80.35;100424.72;5047940;28;20132;-80
2022/04/23 01:06:34;;;;;;;13.20;11.82;;;;;;;6.58;80.17;100422.19;5066597;28;20057;-79
2022/04/23 01:09:04;;;;;;;14.90;11.65;;;;;;;6.53;80.01;100427.63;5062021;28;20071;-80
2022/04/23 01:11:32;;;;;;;15.07;11.35;;;;;;;6.50;80.57;100425.16;5063897;28;20116;-79
2022/04/23 01:14:01;;;;;;;17.55;12.10;;;;;;;6.51;80.36;100426.00;5049758;28;20057;-79
2022/04/23 01:16:28;;;;;;;15.48;11.85;;;;;;;6.46;80.40;100427.97;5059746;28;20131;-80
2022/04/23 01:18:55;;;;;;;14.23;12.05;;;;;;;6.44;80.61;100424.56;5047946;28;20079;-79
2022/04/23 01:21:23;;;;;;;13.65;11.70;;;;;;;6.38;80.29;100423.09;5050884;28;20140;-79
2022/04/23 01:24:16;;;;;;;14.95;11.80;;;;;;;6.38;80.79;100422.22;5052263;28;20056;-80
2022/04/23 01:26:43;;;;;;;13.95;12.32;;;;;;;6.37;80.35;100428.38;5048213;28;20061;-78
2022/04/23 01:29:11;;;;;;;15.13;11.88;;;;;;;6.35;80.87;100420.63;5044259;28;20143;-79
2022/04/23 01:31:38;;;;;;;14.52;11.70;;;;;;;6.35;80.78;100431.09;5060882;28;20047;-79
2022/04/23 01:34:05;;;;;;;14.57;11.70;;;;;;;6.34;80.22;100424.13;5065904;28;20526;-80
2022/04/23 01:36:32;;;;;;;13.55;11.15;;;;;;;6.31;79.97;100419.06;5033720;28;20056;-78
2022/04/23 01:38:59;;;;;;;14.70;11.65;;;;;;;6.29;80.08;100426.94;5054648;28;20053;-78
2022/04/23 01:41:27;;;;;;;13.98;12.00;;;;;;;6.31;80.14;100422.53;5069959;28;20056;-79
2022/04/23 01:43:54;;;;;;;14.70;11.25;;;;;;;6.28;80.29;100430.50;5044346;28;20068;-80
2022/04/23 01:46:21;;;;;;;14.52;11.98;;;;;;;6.24;80.09;100423.69;5033768;28;20051;-79
2022/04/23 01:48:49;;;;;;;15.32;11.98;;;;;;;6.23;79.90;100424.63;5073960;28;20112;-78
2022/04/23 01:51:16;;;;;;;18.05;11.38;;;;;;;6.28;80.38;100424.41;5030273;28;20045;-79
2022/04/23 01:53:44;;;;;;;15.45;12.00;;;;;;;6.28;79.89;100422.66;5013748;28;20059;-79
2022/04/23 01:56:11;;;;;;;14.15;11.60;;;;;;;6.24;79.80;100426.31;5063542;28;20076;-80
2022/04/23 01:58:39;;;;;;;13.68;11.73;;;;;;;6.22;79.85;100419.47;5048864;28;20049;-78
2022/04/23 02:01:07;;;;;;;13.52;11.65;;;;;;;6.23;79.41;100426.38;5056899;28;20049;-79
2022/04/23 02:03:35;;;;;;;12.50;11.20;;;;;;;6.20;79.22;100416.06;5043268;28;20087;-79
2022/04/23 02:06:02;;;;;;;14.23;11.50;;;;;;;6.20;79.12;100423.91;5042834;28;20044;-80
2022/04/23 02:08:29;;;;;;;13.95;11.73;;;;;;;6.16;79.14;100425.78;5079350;28;20056;-79
2022/04/23 02:10:57;;;;;;;17.02;12.48;;;;;;;6.13;79.54;100430.34;5041405;28;20052;-80
2022/04/23 02:13:24;;;;;;;12.77;10.68;;;;;;;6.18;79.35;100425.75;5043154;28;20064;-79
2022/04/23 02:15:51;;;;;;;12.25;10.95;;;;;;;6.16;79.43;100425.78;5053391;28;20127;-79
2022/04/23 02:18:21;;;;;;;13.60;11.38;;;;;;;6.16;78.73;100428.41;5027271;28;20087;-79
2022/04/23 02:20:48;;;;;;;13.88;11.85;;;;;;;6.15;79.27;100431.09;5052937;28;20049;-79
2022/04/23 02:23:15;;;;;;;14.50;10.73;;;;;;;6.15;78.48;100434.56;5044334;28;20139;-79
2022/04/23 02:25:42;;;;;;;13.50;10.73;;;;;;;6.12;78.50;100433.84;5051355;28;20045;-79
2022/04/23 02:28:10;;;;;;;12.70;10.77;;;;;;;6.12;78.48;100432.06;5062353;28;20127;-79
2022/04/23 02:30:37;;;;;;;14.30;11.60;;;;;;;6.16;78.44;100428.41;5055195;28;20136;-79
2022/04/23 02:33:04;;;;;;;14.43;11.68;;;;;;;6.18;78.13;100426.59;5047098;28;20057;-80
2022/04/23 02:35:34;;;;;;;15.70;10.52;;;;;;;6.17;77.80;100430.13;5053997;28;20059;-79
2022/04/23 02:38:01;;;;;;;15.65;11.25;;;;;;;6.14;77.67;100434.63;5066075;28;20116;-79
2022/04/23 02:40:29;;;;;;;13.77;10.25;;;;;;;6.11;77.93;100429.53;5062227;28;20059;-78
2022/04/23 02:42:57;;;;;;;14.27;10.82;;;;;;;6.08;78.02;100433.16;5040527;28;20055;-79
2022/04/23 02:45:25;;;;;;;13.63;10.90;;;;;;;6.08;77.92;100426.16;5044502;28;20131;-79
2022/04/23 02:47:56;;;;;;;12.77;10.40;;;;;;;6.10;77.94;100436.53;5050489;28;20068;-80
2022/04/23 02:50:25;;;;;;;15.65;11.15;;;;;;;6.06;77.79;100438.41;5065637;28;20053;-79
2022/04/23 02:52:55;;;;;;;14.60;11.45;;;;;;;6.06;77.57;100435.81;5053311;28;20048;-79
2022/04/23 02:55:24;;;;;;;13.43;10.85;;;;;;;6.03;77.49;100432.47;5045049;28;20108;-79
2022/04/23 02:57:51;;;;;;;13.85;10.82;;;;;;;6.03;78.00;100435.97;5059601;28;20045;-79
2022/04/23 03:00:19;;;;;;;15.13;11.45;;;;;;;5.98;77.69;100432.66;5050596;28;20379;-79
2022/04/23 03:02:47;;;;;;;15.02;10.40;;;;;;;5.99;78.05;100436.13;5013196;28;20059;-79
2022/04/23 03:05:16;;;;;;;12.18;10.70;;;;;;;5.99;77.93;100437.00;5074366;28;20049;-78
2022/04/23 03:07:48;;;;;;;15.25;11.48;;;;;;;5.97;77.89;100440.59;5058467;28;20028;-79
2022/04/23 03:10:16;;;;;;;12.10;10.20;;;;;;;5.94;77.90;100438.94;5073373;28;20070;-79
2022/04/23 03:12:43;;;;;;;13.32;11.05;;;;;;;5.90;78.11;100437.38;5065961;28;20137;-78
2022/04/23 03:15:16;;;;;;;12.55;10.38;;;;;;;5.88;78.21;100436.56;5040845;28;20112;-79
2022/04/23 03:17:45;;;;;;;14.63;11.18;;;;;;;5.89;78.06;100442.63;5049604;28;20048;-79
2022/04/23 03:20:13;;;;;;;14.32;12.05;;;;;;;5.89;78.07;100437.41;5067309;28;20200;-79
2022/04/23 03:22:42;;;;;;;14.10;11.23;;;;;;;5.88;78.25;100436.56;5043167;28;20499;-79
2022/04/23 03:25:12;;;;;;;14.77;11.52;;;;;;;5.89;78.31;100435.63;5043798;28;20505;-79
2022/04/23 03:27:39;;;;;;;16.90;11.65;;;;;;;5.82;78.28;100431.59;5029369;28;20049;-79
2022/04/23 03:30:06;;;;;;;15.55;11.93;;;;;;;5.80;78.64;100434.25;5046590;28;20100;-79
2022/04/23 03:32:34;;;;;;;15.32;12.07;;;;;;;5.79;78.86;100431.72;5042575;28;20063;-80
2022/04/23 03:35:04;;;;;;;14.73;12.23;;;;;;;5.77;78.44;100436.19;5041088;28;20128;-79
2022/04/23 03:37:33;;;;;;;13.10;11.27;;;;;;;5.73;78.94;100439.84;5059159;28;20132;-80
2022/04/23 03:40:04;;;;;;;16.05;12.20;;;;;;;5.73;79.08;100443.28;5036223;28;20049;-79
2022/04/23 03:42:32;;;;;;;16.85;13.02;;;;;;;5.74;79.25;100444.13;5042422;28;20117;-80
2022/04/23 03:44:59;;;;;;;16.05;11.93;;;;;;;5.75;79.12;100443.22;5050254;28;20045;-80
2022/04/23 03:47:27;;;;;;;15.85;11.77;;;;;;;5.73;79.11;100440.69;5036262;28;20068;-80
2022/04/23 03:49:54;;;;;;;14.18;12.10;;;;;;;5.68;79.82;100445.25;5061417;28;20060;-80
2022/04/23 03:52:48;;;;;;;14.38;11.48;;;;;;;5.65;79.80;100449.75;5062827;28;20044;-80
2022/04/23 03:55:15;;;;;;;15.38;12.18;;;;;;;5.64;80.01;100443.69;5044844;28;20064;-80
2022/04/23 03:57:44;;;;;;;14.75;12.20;;;;;;;5.66;79.56;100446.22;5062222;28;20527;-80
2022/04/23 04:00:13;;;;;;;15.55;12.25;;;;;;;5.67;79.83;100447.91;5061876;28;20045;-80
2022/04/23 04:02:41;;;;;;;18.50;12.90;;;;;;;5.68;79.81;100447.88;5045553;28;20064;-78
2022/04/23 04:05:10;;;;;;;15.77;12.95;;;;;;;5.64;79.81;100453.28;5061885;28;20032;-80
2022/04/23 04:07:43;;;;;;;14.80;12.43;;;;;;;5.65;79.92;100453.19;5034746;28;20058;-80
2022/04/23 04:10:12;;;;;;;15.88;12.20;;;;;;;5.65;80.37;100454.97;5054262;28;20068;-80
2022/04/23 04:12:39;;;;;;;15.25;12.50;;;;;;;5.66;79.98;100461.88;5045748;28;20115;-80
2022/04/23 04:15:08;;;;;;;16.35;12.50;;;;;;;5.67;80.27;100458.34;5032262;28;20055;-79
2022/04/23 04:17:35;;;;;;;16.73;12.30;;;;;;;5.69;80.17;100467.00;5028085;28;20055;-79
2022/04/23 04:20:04;;;;;;;15.05;12.65;;;;;;;5.71;80.01;100457.31;5022197;28;20060;-80
2022/04/23 04:22:31;;;;;;;15.55;12.88;;;;;;;5.74;79.73;100451.97;5042244;28;20363;-78
2022/04/23 04:24:59;;;;;;;15.38;12.77;;;;;;;5.78;80.26;100451.78;5049015;28;20052;-79
2022/04/23 04:27:26;;;;;;;17.55;13.52;;;;;;;5.82;80.14;100453.34;5040455;28;20045;-79
2022/04/23 04:29:53;;;;;;;18.75;13.60;;;;;;;5.82;80.07;100458.56;5036311;28;20171;-78
2022/04/23 04:32:20;;;;;;;17.30;13.65;;;;;;;5.84;79.86;100456.75;5067350;28;20036;-79
2022/04/23 04:34:48;;;;;;;17.73;13.27;;;;;;;5.91;79.69;100461.72;5060817;28;20048;-78
2022/04/23 04:37:15;;;;;;;18.65;13.55;;;;;;;5.94;79.32;100459.84;5064813;28;20059;-78
2022/04/23 04:39:42;;;;;;;17.27;13.00;;;;;;;5.96;79.05;100454.56;5056799;28;20041;-78
2022/04/23 04:42:11;;;;;;;17.38;12.73;;;;;;;5.99;78.97;100462.25;5037482;28;20048;-77
2022/04/23 04:44:38;;;;;;;16.10;13.23;;;;;;;6.05;78.63;100459.41;5035137;28;20115;-77
2022/04/23 04:47:07;;;;;;;16.67;12.38;;;;;;;6.11;78.46;100461.75;5028572;28;20084;-77
2022/04/23 04:49:34;;;;;;;13.90;12.07;;;;;;;6.14;77.82;100455.53;5038559;28;20075;-77
2022/04/23 04:52:02;;;;;;;16.92;12.48;;;;;;;6.19;77.74;100461.41;5024917;28;20423;-77
2022/04/23 04:54:29;;;;;;;14.60;12.57;;;;;;;6.19;77.80;100464.03;5045531;28;20079;-78
2022/04/23 04:56:56;;;;;;;13.77;11.70;;;;;;;6.25;77.55;100461.13;5015892;28;20051;-77
2022/04/23 04:59:24;;;;;;;16.90;11.82;;;;;;;6.34;77.37;100463.34;5042220;28;20423;-77
2022/04/23 05:01:52;;;;;;;14.77;11.63;;;;;;;6.39;76.91;100460.53;5067616;28;20045;-78
2022/04/23 05:04:20;;;;;;;14.35;11.40;;;;;;;6.47;76.51;100463.66;5060570;28;20255;-78
2022/04/23 05:06:47;;;;;;;13.35;11.13;;;;;;;6.52;76.30;100461.69;5036745;28;20048;-79
2022/04/23 05:09:15;;;;;;;15.57;11.77;;;;;;;6.58;76.04;100467.50;5040153;28;20064;-78
2022/04/23 05:11:42;;;;;;;15.02;11.95;;;;;;;6.62;75.72;100464.72;5071490;28;20151;-79
2022/04/23 05:14:09;;;;;;;13.85;11.18;;;;;;;6.73;74.96;100463.34;5021441;28;20079;-78
2022/04/23 05:16:36;;;;;;;15.05;11.30;;;;;;;6.79;74.96;100470.91;5056805;28;20053;-78
2022/04/23 05:19:03;;;;;;;15.80;11.27;;;;;;;6.86;74.40;100474.09;5018631;28;20052;-78
2022/04/23 05:21:30;;;;;;;16.00;11.85;;;;;;;6.95;74.13;100478.91;5046815;28;20095;-78
2022/04/23 05:23:58;;;;;;;14.73;11.00;;;;;;;7.05;73.40;100472.31;5074681;28;20060;-78
2022/04/23 05:26:25;;;;;;;13.38;10.65;;;;;;;7.12;72.94;100472.91;5041951;28;20182;-78
2022/04/23 05:28:52;;;;;;;15.55;11.38;;;;;;;7.20;72.81;100483.81;5029800;28;20071;-78
2022/04/23 05:31:21;;;;;;;15.73;11.63;;;;;;;7.29;72.55;100479.94;5079036;28;20056;-77
2022/04/23 05:33:50;;;;;;;12.85;10.50;;;;;;;7.38;71.89;100481.25;5062526;28;20187;-79
2022/04/23 05:36:17;;;;;;;14.70;10.98;;;;;;;7.44;71.52;100483.59;5037356;28;20495;-79
2022/04/23 05:38:44;;;;;;;13.48;11.05;;;;;;;7.56;71.46;100481.22;5049138;28;20055;-79
2022/04/23 05:41:11;;;;;;;15.73;11.07;;;;;;;7.64;70.53;100483.47;5020289;28;20379;-79
2022/04/23 05:43:39;;;;;;;13.90;11.18;;;;;;;7.70;70.53;100482.31;5055738;28;20188;-79
2022/04/23 05:46:06;;;;;;;13.93;11.02;;;;;;;7.82;70.26;100482.56;5012209;28;20061;-79
2022/04/23 05:48:36;;;;;;;15.93;11.43;;;;;;;7.91;69.38;100480.41;5023976;28;20040;-79
2022/04/23 05:51:04;;;;;;;16.33;10.50;;;;;;;7.97;68.99;100480.97;5042587;28;20573;-79
2022/04/23 05:53:31;;;;;;;14.25;11.38;;;;;;;8.06;68.35;100483.13;5032547;28;20426;-79
2022/04/23 05:55:58;;;;;;;14.77;10.40;;;;;;;8.15;68.65;100481.81;5041354;28;20052;-79
2022/04/23 05:58:26;;;;;;;12.43;10.10;;;;;;;8.25;68.21;100480.41;5061417;28;20120;-80
2022/04/23 06:00:54;;;;;;;12.85;10.45;;;;;;;8.30;67.98;100472.28;5030477;28;20161;-80
2022/04/23 06:03:21;;;;;;;13.07;10.98;;;;;;;8.42;67.10;100479.56;5046518;28;20064;-80
2022/04/23 06:05:50;;;;;;;11.63;9.98;;;;;;;8.50;67.02;100480.00;5058040;28;20094;-80
2022/04/23 06:08:17;;;;;;;14.02;10.70;;;;;;;8.62;66.53;100484.59;5051865;28;20060;-80
2022/04/23 06:10:45;;;;;;;12.40;10.13;;;;;;;8.74;66.08;100482.25;5030268;28;20308;-79
2022/04/23 06:13:12;;;;;;;13.27;10.52;;;;;;;8.82;65.48;100480.06;5065248;28;20223;-80
2022/04/23 06:15:39;;;;;;;12.43;10.18;;;;;;;8.94;64.91;100481.19;5048814;28;20045;-79
2022/04/23 06:18:06;;;;;;;14.90;10.93;;;;;;;8.96;65.58;100485.44;5057162;28;20117;-79
2022/04/23 06:20:34;;;;;;;11.30;9.23;;;;;;;9.04;65.23;100485.00;5067026;28;20048;-78
2022/04/23 06:23:04;;;;;;;12.57;9.77;;;;;;;9.09;64.83;100486.41;5072458;28;20037;-78
2022/04/23 06:25:32;;;;;;;11.80;9.82;;;;;;;9.21;63.56;100486.69;5062796;28;20144;-78
2022/04/23 06:27:59;;;;;;;12.00;9.73;;;;;;;9.36;63.82;100485.81;5063373;28;20055;-80
2022/04/23 06:30:26;;;;;;;11.68;9.35;;;;;;;9.45;64.20;100487.09;5046457;28;20057;-80
2022/04/23 06:32:54;;;;;;;13.88;10.02;;;;;;;9.54;63.60;100481.31;5055185;28;20052;-80
2022/04/23 06:35:21;;;;;;;13.13;10.32;;;;;;;9.66;63.60;100487.66;5074386;28;20096;-79
2022/04/23 06:37:48;;;;;;;12.73;9.98;;;;;;;9.77;62.13;100480.00;5069714;28;20126;-78
2022/04/23 06:40:15;;;;;;;11.32;9.43;;;;;;;9.86;62.28;100482.97;5059319;28;20155;-79
2022/04/23 06:42:42;;;;;;;12.38;9.75;;;;;;;9.96;61.73;100480.63;5060961;28;20075;-79
2022/04/23 06:45:10;;;;;;;10.40;8.80;;;;;;;10.07;61.66;100490.50;5060725;28;20136;-80
2022/04/23 06:47:37;;;;;;;13.05;9.82;;;;;;;10.13;60.91;100482.25;5032831;28;20072;-80
2022/04/23 06:50:06;;;;;;;12.23;10.00;;;;;;;10.19;61.01;100486.31;5029663;28;20067;-80
2022/04/23 06:52:33;;;;;;;12.50;10.73;;;;;;;10.33;60.72;100487.22;5047860;28;20048;-80
2022/04/23 06:55:00;;;;;;;11.13;9.63;;;;;;;10.46;60.65;100489.97;5069539;28;20053;-79
2022/04/23 06:57:28;;;;;;;15.27;10.52;;;;;;;10.55;60.22;100484.13;5044562;28;20059;-80
2022/04/23 06:59:55;;;;;;;12.45;9.73;;;;;;;10.62;59.66;100488.06;5069842;28;20475;-79
2022/04/23 07:02:22;;;;;;;11.27;8.98;;;;;;;10.65;59.64;100490.53;5062155;28;20045;-78
2022/04/23 07:04:49;;;;;;;10.85;9.30;;;;;;;10.78;58.78;100479.25;5079924;28;20060;-80
2022/04/23 07:07:17;;;;;;;11.32;8.65;;;;;;;10.92;58.63;100479.22;5078248;28;20057;-80
2022/04/23 07:13:57;;;;;;;10.23;7.97;;;;;;;11.15;57.68;100483.03;5071338;28;20051;-79
2022/04/23 07:16:24;;;;;;;10.07;8.18;;;;;;;11.22;56.77;100480.88;5056301;28;20052;-79
2022/04/23 07:18:54;;;;;;;10.10;8.27;;;;;;;11.36;56.89;100486.09;5059736;28;20071;-80
2022/04/23 07:21:22;;;;;;;9.18;8.18;;;;;;;11.49;56.04;100486.16;5049050;28;20068;-80
2022/04/23 07:24:10;;;;;;;10.25;8.23;;;;;;;11.56;55.44;100480.38;5042568;28;20248;-78
2022/04/23 07:26:38;;;;;;;19.48;8.30;;;;;;;11.75;55.19;100487.06;5046633;28;20048;-79
2022/04/23 07:29:07;;;;;;;10.88;7.88;;;;;;;11.82;54.72;100476.06;5062579;28;20044;-80
2022/04/23 07:31:36;;;;;;;10.35;7.47;;;;;;;11.90;54.87;100472.91;5072281;28;20052;-79
2022/04/23 07:39:38;;;;;;;9.85;8.18;;;;;;;12.23;54.65;100474.22;5080655;28;20048;-80
2022/04/23 07:42:06;;;;;;;9.50;8.50;;;;;;;12.26;54.60;100472.22;5065823;28;20052;-79
2022/04/23 07:44:34;;;;;;;11.57;8.95;;;;;;;12.35;53.47;100473.38;5064462;28;20040;-78
2022/04/23 07:47:01;;;;;;;11.57;8.27;;;;;;;12.42;53.52;100482.56;5066793;28;20112;-79
2022/04/23 07:49:28;;;;;;;9.35;8.30;;;;;;;12.53;53.41;100473.91;5041693;28;20037;-81
2022/04/23 07:51:56;;;;;;;10.25;6.93;;;;;;;12.65;53.39;100473.91;5061547;28;20496;-80
2022/04/23 07:54:23;;;;;;;7.88;6.65;;;;;;;12.77;53.17;100477.47;5046188;28;20040;-79
2022/04/23 07:56:50;;;;;;;10.00;7.72;;;;;;;12.93;52.44;100469.31;5064086;28;20064;-79
2022/04/23 07:59:17;;;;;;;20.88;8.82;;;;;;;12.98;51.92;100471.63;5047616;28;20045;-78
2022/04/23 08:01:44;;;;;;;9.77;7.38;;;;;;;13.01;51.61;100466.94;5041597;28;20044;-78
2022/04/23 08:04:12;;;;;;;9.73;7.75;;;;;;;13.16;51.22;100467.66;5042692;28;20105;-81
2022/04/23 08:06:39;;;;;;;10.73;7.95;;;;;;;13.18;50.86;100455.16;5042061;28;20059;-78
2022/04/23 08:09:06;;;;;;;7.47;6.70;;;;;;;13.28;50.96;100458.00;5037849;28;20036;-78
2022/04/23 08:11:34;;;;;;;9.55;7.10;;;;;;;13.45;50.42;100454.97;5072407;28;20052;-78
2022/04/23 08:14:06;;;;;;;8.32;6.38;;;;;;;13.66;50.12;100445.47;5032599;28;20052;-79
2022/04/23 08:16:34;;;;;;;8.35;7.32;;;;;;;13.71;49.85;100455.72;5023672;28;20048;-79
2022/04/23 08:19:01;;;;;;;8.68;6.72;;;;;;;13.83;49.12;100454.78;5065663;28;20040;-79
2022/04/23 08:21:28;;;;;;;7.90;7.07;;;;;;;13.84;49.06;100437.94;5044071;28;20052;-80
2022/04/23 08:23:55;;;;;;;9.45;7.20;;;;;;;13.91;48.38;100452.41;5068620;28;20157;-80
2022/04/23 08:26:22;;;;;;;9.27;6.40;;;;;;;14.02;48.28;100448.94;5070237;28;20136;-80
2022/04/23 08:31:35;;;;;;;7.78;6.53;;;;;;;14.25;47.56;100439.25;5043101;28;20061;-80
2022/04/23 08:34:03;;;;;;;7.95;7.13;;;;;;;14.27;46.77;100441.75;5056334;28;20066;-79
2022/04/23 08:36:35;;;;;;;7.25;5.85;;;;;;;14.40;46.82;100435.38;5047600;28;20055;-80
2022/04/23 08:39:04;;;;;;;6.63;5.97;;;;;;;14.56;46.92;100428.94;5031166;28;20060;-79
2022/04/23 08:41:32;;;;;;;9.23;6.43;;;;;;;14.72;46.27;100424.09;5061301;28;20151;-79
2022/04/23 08:44:07;;;;;;;;;;;;;;;14.90;45.99;100421.78;5027012;28;20051;-80
2022/04/23 08:46:38;;;;;;;7.35;5.78;;;;;;;14.98;45.82;100434.44;5062967;28;19996;-80
2022/04/23 08:49:16;;;;;;;7.13;5.47;;;;;;;15.01;45.33;100423.59;5044959;28;20044;-80
2022/04/23 08:51:53;;;;;;;7.07;5.30;;;;;;;15.17;45.19;100419.59;5055609;28;20069;-79
2022/04/23 08:54:23;;;;;;;6.88;5.63;;;;;;;15.17;44.43;100416.94;5038682;28;20051;-80
2022/04/23 08:56:50;;;;;;;9.23;5.97;;;;;;;15.19;43.52;100407.03;5056675;28;20084;-79
2022/04/23 08:59:20;;;;;;;7.95;5.93;;;;;;;15.25;43.66;100411.00;5032066;28;20037;-80
2022/04/23 09:01:53;;;;;;;6.60;5.20;;;;;;;15.50;43.66;100403.69;5039263;28;20155;-80
2022/04/23 09:04:20;;;;;;;16.55;6.45;;;;;;;15.63;43.50;100401.69;5033574;28;20052;-79
2022/04/23 09:06:48;;;;;;;7.93;5.45;;;;;;;15.80;43.27;100394.97;5066393;28;20113;-79
2022/04/23 09:09:18;;;;;;;6.10;5.20;;;;;;;15.84;42.86;100389.28;5049264;28;20113;-79
2022/04/23 09:11:58;;;;;;;9.85;5.68;;;;;;;15.97;42.74;100404.16;5060097;28;20076;-80
2022/04/23 09:14:30;;;;;;;7.07;5.57;;;;;;;16.30;41.67;100397.78;5045600;28;20049;-80
2022/04/23 09:25:38;;;;;;;;;;;;;;;16.82;39.00;100395.91;5038549;28;20044;-80
2022/04/23 09:28:19;;;;;;;5.68;5.13;;;;;;;16.74;37.99;100383.28;5052509;28;19947;-80
2022/04/23 09:30:51;;;;;;;8.65;5.15;;;;;;;16.78;38.00;100398.00;5043814;28;20047;-80
2022/04/23 09:33:21;;;;;;;11.13;6.10;;;;;;;16.93;38.35;100391.31;5059734;28;20072;-80
2022/04/23 09:35:52;;;;;;;7.50;5.32;;;;;;;16.94;39.00;100392.16;5078234;28;20240;-80
2022/04/23 09:38:19;;;;;;;6.88;4.88;;;;;;;17.05;38.39;100388.53;5047624;28;20116;-79
2022/04/23 09:41:15;;;;;;;8.80;5.45;;;;;;;17.09;37.81;100380.13;5056609;28;20114;-80
2022/04/23 09:43:44;;;;;;;15.15;5.65;;;;;;;17.21;39.06;100378.19;5036362;28;20052;-79
2022/04/23 09:46:12;;;;;;;7.75;5.40;;;;;;;17.38;38.50;100368.66;5079781;28;20430;-79
2022/04/23 09:48:43;;;;;;;10.57;4.57;;;;;;;17.65;38.40;100381.25;5039932;28;20183;-79
2022/04/23 09:51:24;;;;;;;22.60;7.18;;;;;;;17.67;38.29;100364.16;5039384;28;20045;-79
2022/04/23 09:53:54;;;;;;;6.53;4.95;;;;;;;17.68;37.32;100357.84;5060683;28;20068;-80
2022/04/23 09:56:23;;;;;;;13.75;5.13;;;;;;;17.76;37.70;100361.66;5042713;28;20048;-80
2022/04/23 09:58:51;;;;;;;11.48;5.30;;;;;;;17.84;37.39;100364.47;5028655;28;20037;-79
2022/04/23 10:01:20;;;;;;;6.72;5.40;;;;;;;17.87;37.15;100364.16;5061194;28;21667;-80
2022/04/23 10:03:52;;;;;;;5.78;4.80;;;;;;;17.85;36.65;100360.81;5078028;28;20061;-79
2022/04/23 10:06:22;;;;;;;5.93;4.50;;;;;;;18.01;37.14;100362.84;5063584;28;20066;-79
2022/04/23 10:08:59;;;;;;;5.95;4.97;;;;;;;18.18;35.77;100352.28;5058679;28;20052;-79
2022/04/23 10:11:30;;;;;;;5.32;4.60;;;;;;;17.92;35.89;100360.09;5049404;28;20119;-79
2022/04/23 10:14:06;;;;;;;6.50;4.90;;;;;;;18.18;36.30;100357.63;5061280;28;20261;-78
2022/04/23 10:16:35;;;;;;;14.57;5.93;;;;;;;18.18;36.38;100360.28;5047830;28;20076;-79
2022/04/23 10:19:03;;;;;;;9.32;5.55;;;;;;;18.03;35.94;100358.25;5061559;28;20052;-79
2022/04/23 10:21:30;;;;;;;9.00;5.20;;;;;;;18.12;35.81;100360.88;5062795;28;20104;-79
2022/04/23 10:24:06;;;;;;;6.25;4.88;;;;;;;18.39;36.08;100356.56;5044788;28;20048;-79
2022/04/23 10:26:48;;;;;;;4.95;4.22;;;;;;;18.44;35.63;100354.28;5058269;28;20045;-79
2022/04/23 10:29:20;;;;;;;13.52;5.43;;;;;;;18.66;35.13;100355.72;5058907;28;20048;-79
2022/04/23 10:32:16;;;;;;;11.23;4.93;;;;;;;18.23;35.11;100357.19;5041930;28;20064;-78
2022/04/23 10:34:43;;;;;;;8.60;4.88;;;;;;;18.26;35.23;100354.22;5052998;28;20051;-79
2022/04/23 10:37:18;;;;;;;4.80;4.28;;;;;;;18.78;34.81;100348.38;5063098;28;20049;-79
2022/04/23 10:39:51;;;;;;;6.40;4.70;;;;;;;19.08;35.27;100340.03;5068376;28;20261;-79
2022/04/23 10:42:22;;;;;;;5.38;4.70;;;;;;;19.45;33.25;100347.88;5052232;28;20100;-77
2022/04/23 10:44:50;;;;;;;6.50;5.28;;;;;;;19.38;32.71;100338.78;5055810;28;20040;-79
2022/04/23 10:47:36;;;;;;;15.43;5.03;;;;;;;19.34;33.81;100339.25;5052531;28;20051;-78
2022/04/23 10:50:18;;;;;;;13.98;5.05;;;;;;;19.26;33.13;100336.50;5021463;28;20063;-79
2022/04/23 10:52:46;;;;;;;7.07;4.63;;;;;;;19.49;33.33;100335.88;5077255;28;20055;-79
2022/04/23 10:55:14;;;;;;;6.57;4.57;;;;;;;19.60;32.90;100333.97;5064014;28;20117;-78
2022/04/23 10:57:50;;;;;;;6.20;4.45;;;;;;;20.05;32.31;100330.28;5079714;28;20048;-79
2022/04/23 11:00:19;;;;;;;5.80;4.35;;;;;;;20.48;32.58;100327.47;5053684;28;20049;-78
2022/04/23 11:02:53;;;;;;;5.85;4.55;;;;;;;20.52;32.21;100336.03;5061301;28;20114;-79
2022/04/23 11:15:25;;;;;;;4.85;3.42;;;;;;;20.78;31.64;100311.88;5070372;28;20044;-78
2022/04/23 11:17:53;;;;;;;4.18;3.78;;;;;;;21.15;30.85;100305.22;5015427;28;20052;-78
2022/04/23 11:20:29;;;;;;;5.70;3.65;;;;;;;21.34;29.08;100298.72;5057360;28;20128;-79
2022/04/23 11:22:58;;;;;;;4.40;3.60;;;;;;;21.00;29.43;100299.69;5050168;28;20558;-80
2022/04/23 11:25:25;;;;;;;5.15;3.53;;;;;;;21.26;29.47;100299.53;5043434;28;20067;-79
2022/04/23 11:27:53;;;;;;;7.03;3.90;;;;;;;21.24;28.73;100299.69;5055511;28;20041;-79
2022/04/23 11:30:29;;;;;;;4.38;3.50;;;;;;;21.56;28.75;100300.72;5072517;28;20052;-80
2022/04/23 11:33:08;;;;;;;6.28;3.80;;;;;;;21.61;28.71;100301.03;5064012;28;20078;-79
2022/04/23 11:35:36;;;;;;;6.57;3.70;;;;;;;21.98;28.60;100299.63;5058550;28;20037;-79
2022/04/23 11:38:03;;;;;;;4.50;4.10;;;;;;;21.92;28.72;100301.13;5043399;28;20049;-81
2022/04/23 11:40:34;;;;;;;4.45;4.05;;;;;;;21.60;29.14;100294.00;5050558;28;20048;-80
2022/04/23 11:43:02;;;;;;;7.82;4.03;;;;;;;21.87;30.10;100286.59;5048209;28;20163;-80
2022/04/23 11:45:29;;;;;;;5.65;4.00;;;;;;;22.15;29.07;100290.53;5044012;28;20075;-80
2022/04/23 11:47:57;;;;;;;8.23;3.60;;;;;;;22.49;29.26;100284.03;5032802;28;20068;-78
2022/04/23 11:50:30;;;;;;;4.18;3.63;;;;;;;22.97;28.08;100277.56;5024674;28;20068;-78
2022/04/23 11:52:59;;;;;;;9.35;4.22;;;;;;;22.95;28.81;100276.88;5055435;28;20048;-79
2022/04/23 11:55:28;;;;;;;6.75;4.22;;;;;;;22.94;28.39;100274.38;5034432;28;20048;-79
2022/04/23 11:57:59;;;;;;;4.85;3.83;;;;;;;22.86;28.53;100269.88;5054507;28;20048;-78
2022/04/23 12:00:28;;;;;;;6.03;3.28;;;;;;;23.23;27.83;100274.47;5046776;28;20037;-79